Ana Sayfa
METAR-TAF:

METAR-TAF

Havaalanları :

Richmond, Virginia, Amerika Birleşik Devletleri

Enlem: 37-24-24N, Boylam: 077-31-30W, yükseklik: 72 m

Güncel hava durumu gözlemi

Rapor saat 09:24 UTC de 11 dakika önce yapıldı.
Sakin rüzgar
Sıcaklık 8°C
Nem 100%
Basınç 1012 hPa
Görüş mesafesi: 16.1 km
600 ft yükseklikte çok bulutlu
hafif yağmur

METAR: KFCI 250924Z AUTO 00000KT 10SM -RA OVC006 08/08 A2988 RMK AO2 CIG 004V008 P0000

Saat: 04:35 (09:35 UTC)


TAF: eksik

4.000'den fazla havaalanı için hava durumu gözlemleri ve tahminleri (METAR ve TAF raporları).

Kullanılabilir istasyonlar harita üzerinde sarı ve kırmızı noktalarla gösterilir.

İstasyonun adını görmek için fareyi noktanın üzerinde gezdirin.

Sonrasında hava gözlem ve tahminlerini görmek için tıklayın.

Haritayı değiştirmek için: yaklaştırmak için siyah artı işaretli yeşil düğmeye ve uzaklaştırmak için de eksi işaretli düğmeye hızla tıklayın; bitişik haritalar için yeşil okları kullanın.


METAR-TAF: